createdAt,value
2018-11-13T00:00:08.246Z,25.05
2018-11-13T00:02:36.724Z,25.75
2018-11-13T00:05:05.584Z,25.02
2018-11-13T00:07:33.927Z,25.57
2018-11-13T00:10:02.245Z,25.92
2018-11-13T00:12:30.563Z,25.52
2018-11-13T00:14:58.981Z,25.70
2018-11-13T00:17:27.300Z,25.10
2018-11-13T00:19:55.627Z,24.50
2018-11-13T00:22:23.945Z,25.72
2018-11-13T00:24:52.288Z,26.23
2018-11-13T00:27:21.366Z,26.73
2018-11-13T00:29:49.758Z,25.05
2018-11-13T00:32:18.262Z,25.97
2018-11-13T00:34:46.606Z,25.92
2018-11-13T00:37:15.200Z,25.35
2018-11-13T00:39:43.663Z,25.72
2018-11-13T00:42:12.034Z,27.00
2018-11-13T00:44:40.463Z,27.48
2018-11-13T00:47:08.805Z,25.77
2018-11-13T00:49:37.125Z,26.82
2018-11-13T00:52:06.045Z,26.50
2018-11-13T00:54:34.419Z,26.48
2018-11-13T00:57:02.781Z,26.85
2018-11-13T00:59:31.395Z,26.02
2018-11-13T01:01:59.588Z,26.17
2018-11-13T01:04:27.929Z,27.15
2018-11-13T01:06:56.235Z,26.68
2018-11-13T01:09:24.629Z,28.15
2018-11-13T01:11:53.185Z,27.05
2018-11-13T01:14:22.548Z,27.30
2018-11-13T01:16:50.987Z,27.15
2018-11-13T01:19:19.386Z,26.87
2018-11-13T01:21:47.759Z,27.00
2018-11-13T01:24:16.260Z,27.75
2018-11-13T01:26:44.574Z,26.70
2018-11-13T01:29:12.880Z,26.40
2018-11-13T01:31:41.263Z,27.65
2018-11-13T01:34:10.597Z,27.05
2018-11-13T01:36:38.905Z,28.32
2018-11-13T01:39:08.845Z,27.50
2018-11-13T01:41:37.166Z,27.07
2018-11-13T01:44:05.889Z,28.07
2018-11-13T01:46:34.227Z,29.02
2018-11-13T01:49:02.745Z,26.50
2018-11-13T01:51:31.404Z,28.27
2018-11-13T01:53:59.815Z,27.40
2018-11-13T01:56:28.369Z,26.20
2018-11-13T01:58:56.887Z,27.55
2018-11-13T02:01:25.263Z,25.57
2018-11-13T02:03:53.629Z,26.82
2018-11-13T02:06:21.996Z,27.52
2018-11-13T02:08:50.415Z,27.10
2018-11-13T02:11:18.735Z,26.50
2018-11-13T02:13:52.852Z,25.37
2018-11-13T02:16:21.572Z,26.60
2018-11-13T02:18:49.916Z,25.70
2018-11-13T02:21:18.296Z,24.67
2018-11-13T02:23:46.670Z,25.70
2018-11-13T02:26:14.992Z,25.70
2018-11-13T02:28:43.387Z,26.33
2018-11-13T02:31:11.747Z,26.42
2018-11-13T02:33:40.153Z,27.02
2018-11-13T02:36:08.641Z,25.57
2018-11-13T02:38:37.370Z,25.82
2018-11-13T02:41:05.863Z,26.73
2018-11-13T02:43:34.660Z,26.00
2018-11-13T02:46:03.242Z,26.23
2018-11-13T02:48:32.740Z,26.12
2018-11-13T02:51:02.066Z,25.60
2018-11-13T02:53:30.983Z,26.02
2018-11-13T02:55:59.480Z,25.80
2018-11-13T02:58:27.840Z,25.30
2018-11-13T03:00:56.191Z,24.98
2018-11-13T03:03:24.511Z,25.50
2018-11-13T03:05:52.788Z,25.15
2018-11-13T03:08:21.864Z,24.40
2018-11-13T03:10:50.505Z,25.85
2018-11-13T03:13:18.866Z,24.32
2018-11-13T03:15:47.205Z,23.47
2018-11-13T03:18:15.646Z,24.07
2018-11-13T03:20:44.014Z,23.62
2018-11-13T03:23:12.388Z,23.77
2018-11-13T03:25:40.903Z,23.27
2018-11-13T03:28:09.264Z,23.95
2018-11-13T03:30:37.663Z,22.10
2018-11-13T03:33:05.961Z,22.42
2018-11-13T03:35:34.243Z,22.13
2018-11-13T03:38:02.940Z,22.42
2018-11-13T03:40:31.286Z,21.73
2018-11-13T03:42:59.710Z,22.82
2018-11-13T03:45:28.040Z,22.77
2018-11-13T03:47:56.439Z,22.10
2018-11-13T03:50:24.900Z,21.70
2018-11-13T03:52:53.315Z,21.62
2018-11-13T03:55:21.700Z,21.87
2018-11-13T03:57:50.492Z,22.75
2018-11-13T04:00:22.862Z,20.72
2018-11-13T04:02:51.306Z,22.62
2018-11-13T04:05:20.671Z,21.02
2018-11-13T04:07:53.360Z,21.95
2018-11-13T04:10:22.307Z,21.48
2018-11-13T04:12:50.738Z,21.50
2018-11-13T04:15:23.483Z,21.00
2018-11-13T04:17:51.973Z,20.43
2018-11-13T04:20:21.409Z,20.57
2018-11-13T04:22:50.092Z,20.80
2018-11-13T04:25:18.444Z,20.30
2018-11-13T04:27:46.823Z,19.23
2018-11-13T04:30:16.310Z,18.12
2018-11-13T04:32:44.918Z,18.00
2018-11-13T04:35:14.535Z,17.55
2018-11-13T04:37:42.934Z,19.77
2018-11-13T04:40:15.327Z,17.02
2018-11-13T04:42:44.978Z,18.62
2018-11-13T04:45:14.668Z,18.98
2018-11-13T04:47:43.975Z,17.55
2018-11-13T04:50:13.772Z,19.20
2018-11-13T04:52:42.586Z,17.27
2018-11-13T04:55:11.374Z,18.32
2018-11-13T04:57:40.748Z,18.60
2018-11-13T05:00:11.784Z,18.73
2018-11-13T05:02:40.838Z,19.30
2018-11-13T05:05:10.090Z,20.77
2018-11-13T05:07:38.449Z,19.30
2018-11-13T05:10:08.454Z,18.98
2018-11-13T05:12:37.207Z,19.35
2018-11-13T05:15:05.869Z,20.05
2018-11-13T05:17:34.235Z,18.70
2018-11-13T05:20:02.761Z,18.70
2018-11-13T05:22:31.427Z,18.65
2018-11-13T05:24:59.856Z,20.05
2018-11-13T05:27:28.456Z,20.27
2018-11-13T05:29:56.912Z,21.62
2018-11-13T05:32:25.199Z,18.17
2018-11-13T05:34:53.571Z,19.10
2018-11-13T05:37:21.908Z,18.87
2018-11-13T05:39:50.593Z,19.32
2018-11-13T05:42:19.213Z,18.70
2018-11-13T05:44:47.550Z,19.52
2018-11-13T05:47:15.961Z,18.57
2018-11-13T05:49:44.331Z,19.80
2018-11-13T05:52:12.683Z,18.02
2018-11-13T05:54:41.123Z,17.02
2018-11-13T05:57:09.502Z,17.40
2018-11-13T05:59:38.100Z,16.65
2018-11-13T06:02:06.973Z,16.23
2018-11-13T06:04:35.446Z,16.17
2018-11-13T06:07:03.884Z,17.82
2018-11-13T06:12:24.236Z,16.45
2018-11-13T06:14:52.602Z,15.78
2018-11-13T06:17:21.043Z,14.58
2018-11-13T06:19:49.710Z,13.78
2018-11-13T06:22:18.092Z,13.30
2018-11-13T06:24:46.414Z,14.60
2018-11-13T06:27:15.733Z,14.28
2018-11-13T06:29:44.367Z,13.45
2018-11-13T06:32:12.914Z,12.82
2018-11-13T06:34:42.153Z,13.62
2018-11-13T06:37:12.124Z,12.90
2018-11-13T06:39:40.839Z,13.43
2018-11-13T06:42:10.221Z,13.60
2018-11-13T06:44:38.679Z,12.93
2018-11-13T06:47:07.050Z,12.78
2018-11-13T06:49:35.429Z,11.38
2018-11-13T06:52:03.811Z,11.97
2018-11-13T06:55:20.454Z,11.28
2018-11-13T06:57:49.664Z,10.50
2018-11-13T07:00:18.394Z,11.60
2018-11-13T07:02:46.807Z,11.60
2018-11-13T07:05:16.377Z,9.53
2018-11-13T07:07:45.248Z,10.18
2018-11-13T07:10:22.464Z,10.75
2018-11-13T07:12:51.636Z,10.25
2018-11-13T07:15:21.406Z,9.33
2018-11-13T07:17:52.357Z,9.65
2018-11-13T07:20:22.121Z,9.68
2018-11-13T07:22:50.939Z,8.75
2018-11-13T07:25:19.484Z,7.92
2018-11-13T07:27:48.197Z,8.08
2018-11-13T07:30:17.704Z,7.83
2018-11-13T07:32:46.421Z,6.80
2018-11-13T07:35:15.874Z,7.08
2018-11-13T07:37:48.881Z,7.20
2018-11-13T07:40:17.343Z,6.70
2018-11-13T07:42:45.625Z,5.97
2018-11-13T07:45:14.725Z,6.12
2018-11-13T07:47:43.994Z,5.90
2018-11-13T07:50:12.828Z,5.20
2018-11-13T07:52:41.188Z,6.35
2018-11-13T07:55:10.655Z,5.05
2018-11-13T07:57:38.994Z,5.47
2018-11-13T08:00:23.472Z,5.30
2018-11-13T08:02:53.200Z,5.37
2018-11-13T08:05:21.707Z,4.95
2018-11-13T08:07:50.008Z,5.17
2018-11-13T08:10:18.404Z,5.25
2018-11-13T08:12:47.120Z,6.22
2018-11-13T08:15:16.711Z,5.53
2018-11-13T08:17:45.027Z,5.55
2018-11-13T08:20:14.576Z,5.40
2018-11-13T08:22:43.491Z,5.85
2018-11-13T08:25:12.062Z,5.25
2018-11-13T08:27:41.052Z,5.47
2018-11-13T08:30:11.355Z,6.22
2018-11-13T08:32:39.649Z,5.62
2018-11-13T08:35:11.593Z,5.42
2018-11-13T08:37:40.018Z,6.08
2018-11-13T08:40:11.567Z,5.25
2018-11-13T08:42:40.079Z,5.12
2018-11-13T08:45:09.247Z,5.40
2018-11-13T08:47:37.620Z,5.62
2018-11-13T08:50:06.171Z,5.37
2018-11-13T08:52:34.445Z,6.40
2018-11-13T08:55:02.790Z,5.58
2018-11-13T08:57:31.115Z,6.35
2018-11-13T08:59:59.406Z,6.05
2018-11-13T09:02:27.697Z,5.70
2018-11-13T09:04:56.092Z,5.75
2018-11-13T09:07:24.459Z,6.30
2018-11-13T09:09:52.695Z,6.12
2018-11-13T09:12:21.110Z,6.25
2018-11-13T09:14:49.285Z,5.55
2018-11-13T09:17:17.513Z,5.45
2018-11-13T09:19:45.932Z,6.12
2018-11-13T09:22:14.164Z,4.85
2018-11-13T09:24:43.040Z,4.87
2018-11-13T09:27:11.679Z,5.12
2018-11-13T09:29:40.018Z,5.25
2018-11-13T09:32:08.285Z,4.20
2018-11-13T09:34:36.605Z,3.90
2018-11-13T09:37:05.180Z,3.95
2018-11-13T09:39:33.590Z,4.45
2018-11-13T09:42:02.563Z,4.58
2018-11-13T09:44:31.151Z,4.58
2018-11-13T09:46:59.427Z,4.87
2018-11-13T09:49:27.737Z,4.67
2018-11-13T09:51:56.032Z,4.22
2018-11-13T09:54:24.384Z,4.40
2018-11-13T09:56:52.698Z,4.75
2018-11-13T09:59:20.964Z,4.75
2018-11-13T10:01:49.809Z,4.33
2018-11-13T10:04:18.474Z,4.75
2018-11-13T10:06:46.192Z,4.55
2018-11-13T10:09:14.492Z,3.98
2018-11-13T10:11:43.823Z,4.15
2018-11-13T10:14:12.399Z,4.47
2018-11-13T10:16:41.945Z,3.90
2018-11-13T10:19:11.203Z,3.92
2018-11-13T10:21:39.481Z,3.77
2018-11-13T10:24:08.764Z,3.83
2018-11-13T10:26:37.090Z,3.62
2018-11-13T10:29:05.468Z,3.15
2018-11-13T10:31:33.731Z,3.37
2018-11-13T10:34:02.049Z,3.35
2018-11-13T10:36:30.336Z,3.00
2018-11-13T10:38:58.644Z,3.40
2018-11-13T10:41:33.780Z,3.47
2018-11-13T10:44:02.003Z,3.20
2018-11-13T10:46:30.340Z,3.12
2018-11-13T10:48:58.801Z,2.85
2018-11-13T10:51:27.171Z,2.62
2018-11-13T10:53:55.606Z,2.40
2018-11-13T10:56:24.324Z,3.15
2018-11-13T10:58:52.992Z,3.77
2018-11-13T11:01:26.683Z,3.45
2018-11-13T11:04:01.094Z,3.37
2018-11-13T11:06:31.351Z,2.72
2018-11-13T11:08:59.900Z,2.70
2018-11-13T11:11:28.299Z,2.70
2018-11-13T11:13:57.048Z,2.92
2018-11-13T11:16:25.184Z,2.75
2018-11-13T11:18:53.549Z,2.45
2018-11-13T11:21:21.781Z,3.40
2018-11-13T11:23:50.101Z,2.90
2018-11-13T11:26:18.368Z,2.83
2018-11-13T11:28:46.734Z,3.17
2018-11-13T11:31:15.048Z,3.22
2018-11-13T11:33:43.329Z,3.27
2018-11-13T11:36:11.699Z,3.33
2018-11-13T11:41:18.209Z,3.87
2018-11-13T11:43:46.886Z,3.55
2018-11-13T11:46:15.519Z,4.25
2018-11-13T11:48:44.053Z,5.42
2018-11-13T11:51:12.579Z,4.28
2018-11-13T11:53:41.232Z,4.40
2018-11-13T11:56:09.956Z,4.35
2018-11-13T11:58:38.638Z,4.65
2018-11-13T12:01:07.376Z,3.95
2018-11-13T12:03:36.428Z,3.77
2018-11-13T12:06:05.323Z,4.22
2018-11-13T12:08:33.931Z,4.03
2018-11-13T12:11:02.473Z,3.85
2018-11-13T12:13:31.062Z,4.03
2018-11-13T12:15:59.580Z,4.25
2018-11-13T12:18:28.137Z,4.10
2018-11-13T12:20:56.670Z,3.92
2018-11-13T12:23:25.218Z,3.58
2018-11-13T12:25:53.913Z,3.85
2018-11-13T12:28:22.397Z,3.37
2018-11-13T12:30:50.949Z,3.80
2018-11-13T12:33:19.478Z,3.50
2018-11-13T12:35:48.256Z,3.72
2018-11-13T12:38:16.983Z,3.30
2018-11-13T12:40:52.330Z,2.75
2018-11-13T12:43:20.848Z,3.67
2018-11-13T12:45:50.168Z,3.20
2018-11-13T12:48:18.779Z,3.17
2018-11-13T12:50:52.776Z,3.30
2018-11-13T12:53:21.332Z,2.35
2018-11-13T12:55:50.075Z,3.30
2018-11-13T12:58:18.714Z,3.05
2018-11-13T13:00:47.465Z,3.20
2018-11-13T13:03:16.089Z,3.30
2018-11-13T13:05:44.813Z,2.80
2018-11-13T13:08:13.423Z,2.62
2018-11-13T13:10:41.984Z,2.80
2018-11-13T13:13:11.863Z,3.00
2018-11-13T13:15:40.417Z,2.80
2018-11-13T13:18:08.979Z,2.87
2018-11-13T13:20:37.535Z,2.65
2018-11-13T13:23:06.085Z,3.55
2018-11-13T13:25:35.789Z,3.67
2018-11-13T13:28:04.372Z,2.52
2018-11-13T13:30:32.910Z,3.15
2018-11-13T13:33:01.530Z,3.42
2018-11-13T13:35:47.263Z,2.37
2018-11-13T13:38:15.794Z,2.67
2018-11-13T13:40:45.304Z,2.72
2018-11-13T13:43:14.569Z,2.52
2018-11-13T13:45:43.851Z,2.50
2018-11-13T13:48:12.373Z,2.92
2018-11-13T13:50:40.927Z,2.12
2018-11-13T13:53:10.542Z,2.12
2018-11-13T13:55:39.166Z,2.27
2018-11-13T13:58:07.729Z,2.35
2018-11-13T14:00:36.335Z,2.37
2018-11-13T14:03:06.043Z,2.27
2018-11-13T14:05:35.016Z,2.25
2018-11-13T14:08:03.719Z,2.30
2018-11-13T14:10:32.454Z,1.95
2018-11-13T14:13:01.147Z,2.37
2018-11-13T14:15:29.967Z,2.67
2018-11-13T14:17:58.738Z,2.30
2018-11-13T14:20:27.473Z,2.10
2018-11-13T14:22:56.103Z,2.25
2018-11-13T14:25:24.692Z,1.80
2018-11-13T14:27:53.278Z,2.60
2018-11-13T14:30:38.963Z,2.08
2018-11-13T14:33:09.863Z,2.05
2018-11-13T14:35:38.554Z,2.08
2018-11-13T14:38:07.239Z,1.90
2018-11-13T14:40:44.014Z,2.00
2018-11-13T14:43:12.814Z,2.12
2018-11-13T14:45:41.539Z,2.08
2018-11-13T14:48:10.799Z,2.15
2018-11-13T14:50:40.198Z,2.08
2018-11-13T14:53:09.654Z,1.92
2018-11-13T14:55:40.002Z,2.75
2018-11-13T14:58:10.003Z,1.92
2018-11-13T15:00:39.115Z,1.50
2018-11-13T15:03:09.053Z,2.55
2018-11-13T15:05:37.759Z,1.55
2018-11-13T15:08:07.383Z,2.33
2018-11-13T15:10:42.154Z,2.42
2018-11-13T15:13:11.149Z,2.00
2018-11-13T15:15:39.654Z,1.82
2018-11-13T15:18:08.559Z,2.00
2018-11-13T15:20:37.281Z,1.50
2018-11-13T15:23:07.106Z,2.05
2018-11-13T15:25:35.674Z,2.20
2018-11-13T15:28:04.191Z,2.47
2018-11-13T15:30:33.942Z,1.45
2018-11-13T15:33:12.695Z,1.98
2018-11-13T15:35:41.193Z,2.22
2018-11-13T15:38:09.870Z,1.90
2018-11-13T15:40:38.471Z,2.02
2018-11-13T15:43:07.086Z,2.75
2018-11-13T15:45:35.654Z,2.02
2018-11-13T15:48:05.551Z,1.87
2018-11-13T15:50:34.982Z,2.45
2018-11-13T15:53:03.574Z,2.20
2018-11-13T15:55:32.133Z,2.25
2018-11-13T15:58:01.121Z,2.20
2018-11-13T16:00:31.377Z,2.12
2018-11-13T16:03:01.347Z,3.60
2018-11-13T16:05:33.174Z,2.80
2018-11-13T16:08:02.734Z,2.42
2018-11-13T16:10:31.665Z,2.22
2018-11-13T16:13:01.161Z,2.85
2018-11-13T16:15:30.580Z,1.95
2018-11-13T16:18:00.519Z,2.62
2018-11-13T16:20:29.280Z,2.58
2018-11-13T16:22:58.733Z,2.27
2018-11-13T16:25:27.683Z,2.90
2018-11-13T16:27:56.557Z,2.98
2018-11-13T16:30:29.931Z,2.90
2018-11-13T16:32:58.562Z,2.98
2018-11-13T16:35:28.046Z,2.87
2018-11-13T16:37:57.951Z,2.65
2018-11-13T16:40:28.667Z,3.00
2018-11-13T16:42:57.473Z,2.87
2018-11-13T16:45:26.995Z,2.72
2018-11-13T16:47:56.927Z,2.70
2018-11-13T16:50:27.984Z,2.75
2018-11-13T16:52:57.220Z,2.95
2018-11-13T16:55:31.127Z,2.87
2018-11-13T16:58:00.868Z,2.62
2018-11-13T17:00:30.252Z,3.42
2018-11-13T17:02:58.853Z,2.42
2018-11-13T17:05:28.386Z,2.77
2018-11-13T17:07:56.873Z,3.02
2018-11-13T17:10:27.832Z,2.90
2018-11-13T17:12:56.851Z,2.95
2018-11-13T17:15:26.656Z,2.70
2018-11-13T17:17:56.257Z,3.30
2018-11-13T17:20:24.906Z,2.98
2018-11-13T17:22:53.765Z,3.37
2018-11-13T17:25:23.841Z,3.47
2018-11-13T17:27:53.420Z,4.42
2018-11-13T17:30:24.211Z,4.90
2018-11-13T17:32:53.452Z,3.62
2018-11-13T17:35:23.434Z,4.60
2018-11-13T17:37:52.787Z,3.17
2018-11-13T17:40:22.612Z,3.77
2018-11-13T17:42:52.126Z,3.27
2018-11-13T17:45:23.207Z,3.60
2018-11-13T17:47:51.873Z,3.92
2018-11-13T17:50:24.020Z,3.95
2018-11-13T17:52:52.926Z,3.77
2018-11-13T17:55:22.023Z,3.40
2018-11-13T17:57:52.144Z,3.35
2018-11-13T18:00:28.207Z,3.00
2018-11-13T18:02:56.901Z,3.27
2018-11-13T18:05:26.371Z,4.53
2018-11-13T18:07:55.896Z,3.98
2018-11-13T18:10:24.853Z,3.02
2018-11-13T18:12:53.477Z,3.60
2018-11-13T18:15:23.462Z,3.72
2018-11-13T18:17:52.153Z,5.25
2018-11-13T18:20:23.032Z,4.75
2018-11-13T18:22:51.649Z,4.42
2018-11-13T18:25:20.261Z,4.92
2018-11-13T18:27:50.390Z,4.37
2018-11-13T18:30:22.717Z,5.62
2018-11-13T18:32:51.554Z,4.97
2018-11-13T18:35:22.563Z,4.20
2018-11-13T18:37:51.901Z,4.08
2018-11-13T18:40:21.607Z,4.22
2018-11-13T18:42:50.989Z,4.37
2018-11-13T18:45:22.548Z,4.92
2018-11-13T18:47:51.556Z,5.37
2018-11-13T18:50:51.991Z,5.12
2018-11-13T18:53:20.808Z,4.70
2018-11-13T18:55:49.707Z,4.58
2018-11-13T18:58:18.487Z,4.67
2018-11-13T19:00:47.084Z,4.62
2018-11-13T19:03:15.751Z,5.35
2018-11-13T19:05:44.446Z,5.58
2018-11-13T19:08:13.501Z,4.90
2018-11-13T19:10:43.999Z,6.15
2018-11-13T19:13:15.090Z,5.37
2018-11-13T19:15:45.378Z,6.45
2018-11-13T19:18:14.653Z,7.53
2018-11-13T19:20:43.240Z,4.90
2018-11-13T19:23:11.966Z,6.22
2018-11-13T19:25:40.959Z,4.67
2018-11-13T19:28:09.655Z,4.92
2018-11-13T19:30:38.576Z,4.97
2018-11-13T19:33:07.424Z,5.10
2018-11-13T19:35:36.234Z,5.08
2018-11-13T19:38:05.936Z,4.90
2018-11-13T19:40:35.166Z,5.40
2018-11-13T19:43:08.122Z,4.95
2018-11-13T19:45:42.043Z,5.72
2018-11-13T19:48:11.717Z,5.72
2018-11-13T19:50:40.741Z,5.50
2018-11-13T19:53:09.435Z,6.15
2018-11-13T19:55:38.085Z,5.87
2018-11-13T19:58:08.714Z,5.90
2018-11-13T20:00:38.600Z,6.03
2018-11-13T20:03:10.078Z,6.17
2018-11-13T20:05:40.497Z,6.60
2018-11-13T20:08:09.804Z,5.28
2018-11-13T20:10:39.504Z,6.10
2018-11-13T20:13:09.315Z,6.25
2018-11-13T20:15:38.747Z,6.05
2018-11-13T20:18:07.579Z,6.87
2018-11-13T20:20:36.666Z,6.58
2018-11-13T20:23:06.830Z,6.25
2018-11-13T20:25:36.163Z,6.85
2018-11-13T20:28:04.967Z,5.78
2018-11-13T20:30:35.668Z,6.60
2018-11-13T20:33:04.330Z,6.75
2018-11-13T20:35:32.951Z,6.53
2018-11-13T20:38:02.159Z,6.10
2018-11-13T20:40:32.150Z,6.85
2018-11-13T20:43:01.954Z,5.95
2018-11-13T20:45:30.634Z,6.22
2018-11-13T20:47:59.407Z,6.30
2018-11-13T20:50:32.459Z,5.58
2018-11-13T20:53:01.094Z,5.92
2018-11-13T20:55:29.939Z,6.33
2018-11-13T20:57:58.757Z,5.60
2018-11-13T21:00:35.913Z,6.87
2018-11-13T21:03:04.546Z,5.05
2018-11-13T21:05:33.460Z,6.28
2018-11-13T21:08:02.156Z,5.78
2018-11-13T21:10:32.342Z,6.47
2018-11-13T21:13:01.813Z,6.35
2018-11-13T21:15:36.750Z,5.80
2018-11-13T21:18:05.442Z,5.70
2018-11-13T21:20:34.010Z,5.62
2018-11-13T21:23:02.607Z,6.58
2018-11-13T21:25:31.220Z,5.53
2018-11-13T21:28:01.367Z,5.42
2018-11-13T21:30:29.943Z,6.53
2018-11-13T21:32:58.492Z,6.03
2018-11-13T21:35:27.056Z,6.25
2018-11-13T21:37:56.697Z,6.92
2018-11-13T21:40:26.338Z,19.15
2018-11-13T21:42:55.408Z,6.10
2018-11-13T21:45:24.883Z,7.15
2018-11-13T21:47:53.470Z,7.25
2018-11-13T21:50:23.516Z,7.42
2018-11-13T21:52:52.153Z,7.58
2018-11-13T21:55:21.961Z,7.75
2018-11-13T21:57:50.614Z,7.42
2018-11-13T22:00:22.519Z,6.83
2018-11-13T22:02:53.112Z,7.90
2018-11-13T22:05:22.520Z,8.80
2018-11-13T22:07:51.202Z,7.78
2018-11-13T22:10:20.898Z,8.00
2018-11-13T22:12:49.702Z,7.50
2018-11-13T22:15:19.734Z,7.60
2018-11-13T22:17:48.399Z,8.08
2018-11-13T22:20:17.954Z,8.28
2018-11-13T22:22:46.797Z,8.68
2018-11-13T22:25:17.830Z,8.85
2018-11-13T22:27:47.891Z,7.83
2018-11-13T22:30:17.462Z,8.38
2018-11-13T22:32:46.504Z,8.58
2018-11-13T22:35:15.698Z,7.92
2018-11-13T22:37:44.289Z,8.33
2018-11-13T22:40:15.003Z,8.95
2018-11-13T22:42:44.671Z,8.05
2018-11-13T22:45:15.080Z,8.73
2018-11-13T22:47:43.648Z,9.38
2018-11-13T22:50:33.512Z,7.95
2018-11-13T22:53:02.157Z,8.45
2018-11-13T22:55:30.846Z,8.30
2018-11-13T22:58:00.592Z,8.55
2018-11-13T23:00:43.633Z,8.30
2018-11-13T23:03:13.522Z,9.38
2018-11-13T23:05:42.661Z,8.55
2018-11-13T23:08:12.349Z,9.60
2018-11-13T23:10:40.865Z,9.20
2018-11-13T23:13:09.436Z,9.40
2018-11-13T23:15:37.978Z,9.28
2018-11-13T23:18:06.833Z,9.90
2018-11-13T23:20:35.586Z,9.53
2018-11-13T23:23:04.228Z,9.65
2018-11-13T23:25:32.973Z,9.00
2018-11-13T23:28:02.430Z,9.20
2018-11-13T23:30:30.965Z,34.03
2018-11-13T23:33:00.055Z,9.43
2018-11-13T23:35:28.684Z,9.80
2018-11-13T23:37:58.411Z,9.58
2018-11-13T23:40:27.905Z,9.25
2018-11-13T23:42:56.542Z,9.33
2018-11-13T23:45:25.973Z,10.20
2018-11-13T23:47:55.060Z,9.43
2018-11-13T23:50:23.745Z,8.90
2018-11-13T23:52:52.646Z,10.00
2018-11-13T23:55:21.176Z,9.70
2018-11-13T23:57:49.802Z,10.13
